Sanna — 9HA4225 — position and weather

sailwx.info

Track history (hours):
 
Tides and Currents Weather Stations Pressure Air Temp Water Temp Dewpoint Dewpoint Depression Visibility Wind Speed Wind Dir Waves Ship Positions

Sanna

Last reported at 2018-Jun-22 18:12 UTC. Time now 2018-Jun-25 04:32 UTC.
Position N 37°37' E 024°10'.

Length 147 m; draft 5.7 m.

Type: Cargo ship. MMSI: 249384000.

Date/timePositionNaut miles runAvg speedWind from/ knotsBaromVisibWave heightAir tempDewpointWater temp
2018-Jun-22 18:12N 37°37' E 024°10'810.9
2018-Jun-22 17:29N 37°30' E 024°05'611.1
2018-Jun-22 16:59N 37°25' E 024°01'511.2
2018-Jun-22 16:30N 37°21' E 023°57'611.3
2018-Jun-22 16:00N 37°16' E 023°53'711.5
2018-Jun-22 15:22N 37°09' E 023°49'411.6
2018-Jun-22 15:00N 37°06' E 023°47'611.4
2018-Jun-22 14:30N 37°01' E 023°43'611.1
2018-Jun-22 14:00N 36°56' E 023°39'5 9.2
2018-Jun-22 13:30N 36°52' E 023°36'611.4
2018-Jun-22 13:00N 36°47' E 023°33'87 3.3
2018-Jun-21 10:52N 38°10' E 022°57'  
Track history (hours):
 
Tides and Currents Weather Stations Pressure Air Temp Water Temp Dewpoint Dewpoint Depression Visibility Wind Speed Wind Dir Waves Ship Positions

Sanna

Last reported at 2018-Jun-22 18:12 UTC. Time now 2018-Jun-25 04:32 UTC.
Position N 37°37' E 024°10'.

Length 147 m; draft 5.7 m.

Type: Cargo ship. MMSI: 249384000.

Date/timePositionNaut miles runAvg speedWind from/ knotsBaromVisibWave heightAir tempDewpointWater temp
2018-Jun-22 18:12N 37°37' E 024°10'810.9
2018-Jun-22 17:29N 37°30' E 024°05'611.1
2018-Jun-22 16:59N 37°25' E 024°01'511.2
2018-Jun-22 16:30N 37°21' E 023°57'611.3
2018-Jun-22 16:00N 37°16' E 023°53'711.5
2018-Jun-22 15:22N 37°09' E 023°49'411.6
2018-Jun-22 15:00N 37°06' E 023°47'611.4
2018-Jun-22 14:30N 37°01' E 023°43'611.1
2018-Jun-22 14:00N 36°56' E 023°39'5 9.2
2018-Jun-22 13:30N 36°52' E 023°36'611.4
2018-Jun-22 13:00N 36°47' E 023°33'87 3.3
2018-Jun-21 10:52N 38°10' E 022°57'  

Dump ship's entire track history